createdAt,value
2022-12-20T00:02:20.591Z,-0.40
2022-12-20T00:04:50.743Z,-0.50
2022-12-20T00:07:19.834Z,-0.50
2022-12-20T00:09:48.416Z,-0.50
2022-12-20T00:12:17.585Z,-0.50
2022-12-20T00:15:19.996Z,-0.50
2022-12-20T00:17:52.535Z,-0.40
2022-12-20T00:20:22.337Z,-0.40
2022-12-20T00:22:50.996Z,-0.40
2022-12-20T00:25:20.760Z,-0.30
2022-12-20T00:28:14.155Z,-0.40
2022-12-20T00:30:42.490Z,-0.40
2022-12-20T00:33:11.591Z,-0.40
2022-12-20T00:35:44.784Z,-0.40
2022-12-20T00:38:13.296Z,-0.30
2022-12-20T00:40:41.804Z,-0.30
2022-12-20T00:43:10.611Z,-0.30
2022-12-20T00:45:39.162Z,-0.20
2022-12-20T00:48:08.177Z,-0.30
2022-12-20T00:50:37.128Z,-0.30
2022-12-20T00:53:10.073Z,-0.30
2022-12-20T00:55:43.114Z,-0.30
2022-12-20T00:58:11.880Z,-0.30
2022-12-20T01:00:41.453Z,-0.30
2022-12-20T01:03:10.675Z,-0.30
2022-12-20T01:06:09.611Z,-0.20
2022-12-20T01:08:39.400Z,-0.30
2022-12-20T01:11:10.109Z,-0.30
2022-12-20T01:14:12.190Z,-0.40
2022-12-20T01:16:42.485Z,-0.40
2022-12-20T01:19:13.372Z,-0.40
2022-12-20T01:21:45.100Z,-0.50
2022-12-20T01:24:15.443Z,-0.50
2022-12-20T01:26:44.076Z,-0.50
2022-12-20T01:29:14.517Z,-0.50
2022-12-20T01:31:43.728Z,-0.50
2022-12-20T01:34:13.245Z,-0.60
2022-12-20T01:36:42.530Z,-0.60
2022-12-20T01:39:16.149Z,-0.60
2022-12-20T01:41:46.266Z,-0.60
2022-12-20T01:45:06.483Z,-0.60
2022-12-20T01:47:38.244Z,-0.60
2022-12-20T01:50:09.492Z,-0.60
2022-12-20T01:52:41.261Z,-0.60
2022-12-20T01:55:14.435Z,-0.60
2022-12-20T01:57:48.088Z,-0.70
2022-12-20T02:00:17.603Z,-0.70
2022-12-20T02:02:48.820Z,-0.70
2022-12-20T02:05:18.494Z,-0.70
2022-12-20T02:07:50.479Z,-0.70
2022-12-20T02:10:22.109Z,-0.80
2022-12-20T02:12:54.969Z,-0.80
2022-12-20T02:15:33.423Z,-0.80
2022-12-20T02:18:15.241Z,-0.80
2022-12-20T02:21:19.999Z,-0.80
2022-12-20T02:24:14.523Z,-0.80
2022-12-20T02:27:25.628Z,-0.90
2022-12-20T02:30:20.485Z,-0.90
2022-12-20T02:33:02.740Z,-1.00
2022-12-20T02:35:34.008Z,-1.00
2022-12-20T02:38:29.261Z,-1.00
2022-12-20T02:41:25.033Z,-1.00
2022-12-20T02:44:14.527Z,-1.10
2022-12-20T02:46:45.705Z,-1.00
2022-12-20T02:49:18.428Z,-1.10
2022-12-20T02:51:50.721Z,-1.10
2022-12-20T02:54:19.955Z,-1.10
2022-12-20T02:56:53.984Z,-1.10
2022-12-20T02:59:26.631Z,-1.10
2022-12-20T03:01:58.606Z,-1.10
2022-12-20T03:04:30.052Z,-1.10
2022-12-20T03:07:00.931Z,-1.20
2022-12-20T03:09:29.403Z,-1.30
2022-12-20T03:11:58.259Z,-1.30
2022-12-20T03:14:26.646Z,-1.30
2022-12-20T03:16:56.838Z,-1.30
2022-12-20T03:19:44.478Z,-1.20
2022-12-20T03:22:38.725Z,-1.30
2022-12-20T03:25:08.098Z,-1.40
2022-12-20T03:27:36.479Z,-1.40
2022-12-20T03:30:05.920Z,-1.40
2022-12-20T03:32:35.853Z,-1.40
2022-12-20T03:35:04.403Z,-1.40
2022-12-20T03:37:33.031Z,-1.40
2022-12-20T03:40:01.453Z,-1.40
2022-12-20T03:42:29.714Z,-1.50
2022-12-20T03:44:58.416Z,-1.50
2022-12-20T03:47:27.008Z,-1.50
2022-12-20T03:49:57.436Z,-1.40
2022-12-20T03:52:29.029Z,-1.50
2022-12-20T03:54:57.516Z,-1.50
2022-12-20T03:57:25.902Z,-1.40
2022-12-20T03:59:54.411Z,-1.50
2022-12-20T04:02:23.287Z,-1.50
2022-12-20T04:04:51.967Z,-1.40
2022-12-20T04:07:24.848Z,-1.40
2022-12-20T04:09:53.529Z,-1.50
2022-12-20T04:12:22.215Z,-1.50
2022-12-20T04:14:50.905Z,-1.50
2022-12-20T04:17:19.719Z,-1.40
2022-12-20T04:19:48.978Z,-1.50
2022-12-20T04:22:17.548Z,-1.40
2022-12-20T04:24:47.962Z,-1.30
2022-12-20T04:27:16.451Z,-1.40
2022-12-20T04:29:44.755Z,-1.40
2022-12-20T04:32:13.200Z,-1.50
2022-12-20T04:34:41.548Z,-1.40
2022-12-20T04:37:10.189Z,-1.40
2022-12-20T04:39:38.940Z,-1.40
2022-12-20T04:42:09.021Z,-1.50
2022-12-20T04:44:37.630Z,-1.50
2022-12-20T04:47:06.389Z,-1.50
2022-12-20T04:49:34.780Z,-1.50
2022-12-20T04:52:17.052Z,-1.60
2022-12-20T04:54:46.968Z,-1.60
2022-12-20T04:57:16.813Z,-1.60
2022-12-20T04:59:45.146Z,-1.60
2022-12-20T05:02:39.174Z,-1.60
2022-12-20T05:05:08.420Z,-1.70
2022-12-20T05:07:36.696Z,-1.70
2022-12-20T05:10:05.789Z,-1.70
2022-12-20T05:12:35.568Z,-1.70
2022-12-20T05:15:03.800Z,-1.70
2022-12-20T05:17:32.143Z,-1.70
2022-12-20T05:20:00.866Z,-1.70
2022-12-20T05:22:54.706Z,-1.70
2022-12-20T05:25:40.165Z,-1.70
2022-12-20T05:28:09.942Z,-1.70
2022-12-20T05:30:38.394Z,-1.70
2022-12-20T05:33:34.223Z,-1.80
2022-12-20T05:36:02.952Z,-1.90
2022-12-20T05:38:31.343Z,-1.90
2022-12-20T05:40:59.672Z,-1.90
2022-12-20T05:43:29.385Z,-1.90
2022-12-20T05:45:58.807Z,-2.00
2022-12-20T05:48:27.188Z,-2.00
2022-12-20T05:50:55.548Z,-2.00
2022-12-20T05:53:23.932Z,-2.00
2022-12-20T05:55:54.152Z,-2.10
2022-12-20T05:58:22.857Z,-2.10
2022-12-20T06:00:52.571Z,-2.10
2022-12-20T06:03:21.058Z,-2.10
2022-12-20T06:05:49.739Z,-2.00
2022-12-20T06:08:18.206Z,-2.20
2022-12-20T06:10:46.714Z,-2.10
2022-12-20T06:13:15.058Z,-2.10
2022-12-20T06:15:43.656Z,-2.00
2022-12-20T06:18:13.854Z,-1.90
2022-12-20T06:20:42.448Z,-1.60
2022-12-20T06:23:11.028Z,-1.00
2022-12-20T06:25:40.261Z,-0.10
2022-12-20T06:28:08.810Z,0.80
2022-12-20T06:30:37.272Z,1.60
2022-12-20T06:33:06.150Z,2.20
2022-12-20T06:35:36.292Z,2.90
2022-12-20T06:38:05.080Z,3.70
2022-12-20T06:40:33.568Z,4.50
2022-12-20T06:43:01.942Z,5.10
2022-12-20T06:45:34.676Z,5.60
2022-12-20T06:48:06.695Z,6.10
2022-12-20T06:50:36.368Z,6.60
2022-12-20T06:53:04.698Z,7.30
2022-12-20T06:55:33.424Z,7.70
2022-12-20T06:58:01.815Z,8.00
2022-12-20T07:00:30.247Z,7.80
2022-12-20T07:02:58.966Z,7.40
2022-12-20T07:05:27.543Z,6.90
2022-12-20T07:07:57.177Z,6.50
2022-12-20T07:10:25.534Z,6.00
2022-12-20T07:13:05.803Z,5.40
2022-12-20T07:15:35.162Z,4.70
2022-12-20T07:18:03.726Z,4.00
2022-12-20T07:20:32.318Z,3.50
2022-12-20T07:23:03.110Z,3.20
2022-12-20T07:25:31.518Z,3.20
2022-12-20T07:28:00.014Z,3.00
2022-12-20T07:30:28.488Z,2.80
2022-12-20T07:33:02.725Z,2.50
2022-12-20T07:35:31.125Z,2.30
2022-12-20T07:37:59.591Z,2.20
2022-12-20T07:40:30.017Z,2.10
2022-12-20T07:43:23.992Z,2.00
2022-12-20T07:45:57.379Z,2.00
2022-12-20T07:48:26.559Z,1.90
2022-12-20T07:51:00.344Z,1.90
2022-12-20T07:53:30.205Z,1.90
2022-12-20T07:56:02.954Z,1.90
2022-12-20T07:58:32.495Z,1.80
2022-12-20T08:01:01.124Z,1.80
2022-12-20T08:03:57.827Z,1.90
2022-12-20T08:06:26.391Z,2.00
2022-12-20T08:08:58.921Z,2.10
2022-12-20T08:11:31.348Z,2.10
2022-12-20T08:14:24.264Z,2.20
2022-12-20T08:16:52.845Z,2.60
2022-12-20T08:19:47.607Z,2.90
2022-12-20T08:22:16.727Z,3.30
2022-12-20T08:24:45.353Z,3.30
2022-12-20T08:27:15.480Z,3.50
2022-12-20T08:29:43.777Z,3.70
2022-12-20T08:32:14.097Z,3.70
2022-12-20T08:34:42.295Z,4.10
2022-12-20T08:37:14.914Z,4.90
2022-12-20T08:39:50.551Z,5.60
2022-12-20T08:42:20.390Z,6.80
2022-12-20T08:44:48.709Z,8.10
2022-12-20T08:47:16.946Z,9.60
2022-12-20T08:49:47.830Z,9.70
2022-12-20T08:52:16.867Z,10.20
2022-12-20T08:54:45.751Z,11.50
2022-12-20T08:57:14.190Z,12.70
2022-12-20T08:59:44.250Z,13.70
2022-12-20T09:02:12.810Z,14.10
2022-12-20T09:04:41.532Z,13.60
2022-12-20T09:07:10.725Z,13.30
2022-12-20T09:09:45.588Z,12.60
2022-12-20T09:12:14.012Z,11.90
2022-12-20T09:14:44.004Z,10.90
2022-12-20T09:17:12.640Z,9.80
2022-12-20T09:19:41.168Z,8.90
2022-12-20T09:22:10.324Z,8.60
2022-12-20T09:24:39.327Z,8.40
2022-12-20T09:27:07.861Z,8.40
2022-12-20T09:29:36.370Z,8.50
2022-12-20T09:32:06.724Z,8.60
2022-12-20T09:34:35.191Z,8.70
2022-12-20T09:37:03.639Z,8.70
2022-12-20T09:39:32.189Z,8.70
2022-12-20T09:42:00.883Z,8.80
2022-12-20T09:44:31.798Z,8.50
2022-12-20T09:47:09.777Z,8.40
2022-12-20T09:49:44.800Z,8.30
2022-12-20T09:52:36.057Z,8.40
2022-12-20T09:55:15.283Z,8.00
2022-12-20T09:58:33.551Z,8.00
2022-12-20T10:01:25.349Z,7.80
2022-12-20T10:03:57.429Z,7.50
2022-12-20T10:06:38.524Z,7.10
2022-12-20T10:09:46.694Z,6.80
2022-12-20T10:12:25.049Z,6.30
2022-12-20T10:15:05.527Z,5.60
2022-12-20T10:17:59.465Z,5.20
2022-12-20T10:20:39.447Z,4.80
2022-12-20T10:23:17.862Z,4.50
2022-12-20T10:25:49.151Z,4.40
2022-12-20T10:28:18.497Z,4.30
2022-12-20T10:30:46.820Z,4.30
2022-12-20T10:33:29.037Z,4.30
2022-12-20T10:35:57.481Z,4.20
2022-12-20T10:38:45.975Z,4.30
2022-12-20T10:41:21.982Z,4.40
2022-12-20T10:43:56.758Z,4.50
2022-12-20T10:46:35.415Z,4.70
2022-12-20T10:50:11.038Z,4.90
2022-12-20T10:52:43.013Z,5.30
2022-12-20T10:55:43.982Z,5.30
2022-12-20T10:58:17.434Z,5.60
2022-12-20T11:00:46.629Z,5.90
2022-12-20T11:03:19.943Z,6.10
2022-12-20T11:05:57.787Z,6.10
2022-12-20T11:08:51.223Z,6.10
2022-12-20T11:11:25.771Z,5.90
2022-12-20T11:14:16.534Z,5.70
2022-12-20T11:16:48.336Z,5.70
2022-12-20T11:19:37.624Z,5.90
2022-12-20T11:22:21.061Z,6.00
2022-12-20T11:25:02.647Z,5.90
2022-12-20T11:27:39.615Z,5.80
2022-12-20T11:30:14.074Z,5.60
2022-12-20T11:33:22.945Z,5.30
2022-12-20T11:35:57.834Z,5.10
2022-12-20T11:38:55.502Z,4.80
2022-12-20T11:41:31.139Z,4.80
2022-12-20T11:44:27.465Z,4.80
2022-12-20T11:47:17.453Z,4.80
2022-12-20T11:50:11.466Z,4.80
2022-12-20T11:52:45.340Z,4.80
2022-12-20T11:55:21.847Z,4.90
2022-12-20T12:00:54.963Z,5.10
2022-12-20T12:03:30.581Z,5.20
2022-12-20T12:06:05.052Z,5.20
2022-12-20T12:08:42.648Z,5.20
2022-12-20T12:12:05.149Z,5.10
2022-12-20T12:14:27.319Z,5.20
2022-12-20T12:17:01.867Z,5.20
2022-12-20T12:19:32.953Z,5.20
2022-12-20T12:22:07.302Z,5.10
2022-12-20T12:24:41.336Z,5.00
2022-12-20T12:27:16.973Z,5.00
2022-12-20T12:29:45.600Z,5.00
2022-12-20T12:32:21.972Z,5.00
2022-12-20T12:35:10.229Z,5.10
2022-12-20T12:37:56.332Z,5.10
2022-12-20T12:40:54.205Z,5.20
2022-12-20T12:43:47.124Z,5.30
2022-12-20T12:46:19.532Z,5.40
2022-12-20T12:48:56.001Z,5.40
2022-12-20T12:51:29.351Z,5.30
2022-12-20T12:54:15.703Z,5.20
2022-12-20T12:56:47.516Z,5.10
2022-12-20T12:59:52.016Z,5.00
2022-12-20T13:02:36.584Z,5.00
2022-12-20T13:05:36.023Z,4.90
2022-12-20T13:08:05.553Z,4.90
2022-12-20T13:11:09.703Z,4.80
2022-12-20T13:13:44.274Z,4.70
2022-12-20T13:17:09.353Z,4.70
2022-12-20T13:19:31.807Z,4.70
2022-12-20T13:22:22.141Z,4.80
2022-12-20T13:24:58.401Z,4.90
2022-12-20T13:27:30.314Z,4.90
2022-12-20T13:30:28.710Z,4.80
2022-12-20T13:33:19.238Z,4.80
2022-12-20T13:36:06.399Z,4.80
2022-12-20T13:39:00.954Z,4.70
2022-12-20T13:41:37.535Z,4.60
2022-12-20T13:44:30.910Z,4.50
2022-12-20T13:47:07.413Z,4.40
2022-12-20T13:49:40.099Z,4.30
2022-12-20T13:52:17.675Z,4.20
2022-12-20T13:54:50.032Z,4.10
2022-12-20T13:57:45.158Z,4.20
2022-12-20T14:00:19.060Z,4.30
2022-12-20T14:02:48.278Z,4.30
2022-12-20T14:05:20.531Z,4.30
2022-12-20T14:07:53.680Z,4.40
2022-12-20T14:10:42.354Z,4.40
2022-12-20T14:13:22.947Z,4.30
2022-12-20T14:15:52.410Z,4.30
2022-12-20T14:18:22.901Z,4.30
2022-12-20T14:20:55.218Z,4.20
2022-12-20T14:23:26.361Z,4.10
2022-12-20T14:25:59.385Z,4.10
2022-12-20T14:28:40.546Z,4.00
2022-12-20T14:31:24.164Z,3.90
2022-12-20T14:33:53.303Z,3.80
2022-12-20T14:36:22.961Z,3.70
2022-12-20T14:38:53.426Z,3.60
2022-12-20T14:41:39.805Z,3.50
2022-12-20T14:44:18.962Z,3.40
2022-12-20T14:46:52.280Z,3.20
2022-12-20T14:49:25.032Z,3.10
2022-12-20T14:52:06.814Z,3.00
2022-12-20T14:57:30.337Z,2.80
2022-12-20T15:00:25.664Z,2.60
2022-12-20T15:03:18.527Z,2.50
2022-12-20T15:05:52.810Z,2.40
2022-12-20T15:08:24.126Z,2.30
2022-12-20T15:10:59.260Z,2.20
2022-12-20T15:13:33.000Z,2.10
2022-12-20T15:16:04.844Z,1.90
2022-12-20T15:18:36.566Z,1.80
2022-12-20T15:21:08.178Z,1.70
2022-12-20T15:23:36.927Z,1.60
2022-12-20T15:26:05.830Z,1.60
2022-12-20T15:28:36.839Z,1.60
2022-12-20T15:31:06.461Z,1.60
2022-12-20T15:33:36.944Z,1.40
2022-12-20T15:36:05.475Z,1.40
2022-12-20T15:39:03.436Z,1.30
2022-12-20T15:41:24.430Z,1.30
2022-12-20T15:43:57.861Z,1.20
2022-12-20T15:46:27.081Z,1.20
2022-12-20T15:48:55.985Z,1.10
2022-12-20T15:51:29.867Z,1.10
2022-12-20T15:53:58.616Z,1.00
2022-12-20T15:56:30.120Z,1.00
2022-12-20T15:59:00.183Z,0.90
2022-12-20T16:01:40.087Z,0.70
2022-12-20T16:04:14.594Z,0.70
2022-12-20T16:06:43.977Z,0.60
2022-12-20T16:09:12.768Z,0.50
2022-12-20T16:11:42.151Z,0.40
2022-12-20T16:14:17.347Z,0.50
2022-12-20T16:16:47.972Z,0.40
2022-12-20T16:19:16.931Z,0.30
2022-12-20T16:21:47.705Z,0.30
2022-12-20T16:24:18.503Z,0.30
2022-12-20T16:27:11.823Z,0.20
2022-12-20T16:30:09.821Z,0.20
2022-12-20T16:32:38.384Z,0.10
2022-12-20T16:35:07.891Z,0.10
2022-12-20T16:37:39.165Z,0.00
2022-12-20T16:40:09.302Z,-0.10
2022-12-20T16:42:37.948Z,-0.10
2022-12-20T16:45:13.644Z,-0.10
2022-12-20T16:47:43.217Z,-0.20
2022-12-20T16:50:13.459Z,-0.10
2022-12-20T16:52:42.439Z,-0.30
2022-12-20T16:55:16.750Z,-0.30
2022-12-20T16:57:46.012Z,-0.30
2022-12-20T17:00:25.250Z,-0.40
2022-12-20T17:02:54.638Z,-0.40
2022-12-20T17:05:27.731Z,-0.40
2022-12-20T17:07:56.590Z,-0.40
2022-12-20T17:10:27.056Z,-0.50
2022-12-20T17:12:55.562Z,-0.60
2022-12-20T17:15:31.964Z,-0.60
2022-12-20T17:18:00.212Z,-0.70
2022-12-20T17:20:35.028Z,-0.70
2022-12-20T17:23:05.144Z,-0.70
2022-12-20T17:25:37.402Z,-0.70
2022-12-20T17:28:06.277Z,-0.80
2022-12-20T17:30:35.964Z,-0.80
2022-12-20T17:33:04.197Z,-0.90
2022-12-20T17:35:34.070Z,-1.00
2022-12-20T17:38:02.856Z,-1.10
2022-12-20T17:40:31.123Z,-1.10
2022-12-20T17:42:59.375Z,-1.10
2022-12-20T17:45:30.641Z,-1.10
2022-12-20T17:48:00.653Z,-1.10
2022-12-20T17:51:02.820Z,-1.10
2022-12-20T17:53:31.043Z,-1.10
2022-12-20T17:55:59.228Z,-1.10
2022-12-20T17:58:27.484Z,-1.10
2022-12-20T18:00:55.748Z,-1.20
2022-12-20T18:04:01.500Z,-1.30
2022-12-20T18:06:13.596Z,-1.10
2022-12-20T18:08:42.468Z,-1.10
2022-12-20T18:11:19.431Z,-1.20
2022-12-20T18:13:49.299Z,-1.20
2022-12-20T18:16:20.373Z,-1.30
2022-12-20T18:18:50.668Z,-1.30
2022-12-20T18:21:21.039Z,-1.30
2022-12-20T18:23:49.702Z,-1.20
2022-12-20T18:26:20.798Z,-1.30
2022-12-20T18:28:51.080Z,-1.40
2022-12-20T18:31:21.484Z,-1.40
2022-12-20T18:33:55.746Z,-1.50
2022-12-20T18:36:28.915Z,-1.40
2022-12-20T18:38:58.903Z,-1.40
2022-12-20T18:41:29.803Z,-1.40
2022-12-20T18:43:59.780Z,-1.50
2022-12-20T18:46:33.329Z,-1.50
2022-12-20T18:49:03.295Z,-1.50
2022-12-20T18:51:37.062Z,-1.60
2022-12-20T18:54:07.132Z,-1.60
2022-12-20T18:56:38.570Z,-1.60
2022-12-20T18:59:11.812Z,-1.60
2022-12-20T19:01:42.664Z,-1.70
2022-12-20T19:04:14.248Z,-1.80
2022-12-20T19:06:43.736Z,-1.80
2022-12-20T19:09:14.341Z,-1.80
2022-12-20T19:11:43.094Z,-1.70
2022-12-20T19:14:13.138Z,-1.70
2022-12-20T19:16:42.026Z,-1.80
2022-12-20T19:19:12.567Z,-1.80
2022-12-20T19:21:43.028Z,-1.70
2022-12-20T19:24:13.024Z,-1.70
2022-12-20T19:26:41.864Z,-1.80
2022-12-20T19:29:11.655Z,-1.80
2022-12-20T19:31:40.051Z,-1.90
2022-12-20T19:34:11.877Z,-1.90
2022-12-20T19:36:43.766Z,-2.00
2022-12-20T19:39:16.131Z,-2.00
2022-12-20T19:41:54.847Z,-1.90
2022-12-20T19:44:28.376Z,-1.90
2022-12-20T19:46:56.714Z,-1.90
2022-12-20T19:49:24.977Z,-2.00
2022-12-20T19:51:54.625Z,-2.10
2022-12-20T19:54:22.811Z,-2.10
2022-12-20T19:56:51.087Z,-2.10
2022-12-20T19:59:19.310Z,-2.10
2022-12-20T20:01:47.632Z,-2.10
2022-12-20T20:04:15.923Z,-2.20
2022-12-20T20:06:44.194Z,-2.20
2022-12-20T20:09:13.956Z,-2.20
2022-12-20T20:11:42.202Z,-2.20
2022-12-20T20:14:35.853Z,-2.20
2022-12-20T20:17:04.121Z,-2.20
2022-12-20T20:19:33.015Z,-2.30
2022-12-20T20:22:01.247Z,-2.30
2022-12-20T20:24:31.005Z,-2.30
2022-12-20T20:26:59.332Z,-2.30
2022-12-20T20:29:27.537Z,-2.30
2022-12-20T20:31:55.752Z,-2.30
2022-12-20T20:34:24.112Z,-2.10
2022-12-20T20:37:17.625Z,-2.30
2022-12-20T20:39:47.950Z,-2.30
2022-12-20T20:42:21.528Z,-2.30
2022-12-20T20:44:51.775Z,-2.40
2022-12-20T20:47:20.623Z,-2.40
2022-12-20T20:49:48.818Z,-2.50
2022-12-20T20:52:41.728Z,-2.50
2022-12-20T20:55:12.131Z,-2.50
2022-12-20T20:57:40.437Z,-2.50
2022-12-20T21:00:10.363Z,-2.50
2022-12-20T21:02:38.799Z,-2.50
2022-12-20T21:05:58.576Z,-2.50
2022-12-20T21:07:56.133Z,-2.60
2022-12-20T21:10:27.110Z,-2.60
2022-12-20T21:12:55.693Z,-2.60
2022-12-20T21:15:26.107Z,-2.60
2022-12-20T21:17:54.420Z,-2.50
2022-12-20T21:20:26.332Z,-2.60
2022-12-20T21:22:55.133Z,-2.60
2022-12-20T21:25:43.903Z,-2.70
2022-12-20T21:28:17.687Z,-2.80
2022-12-20T21:30:49.348Z,-2.80
2022-12-20T21:33:17.658Z,-2.80
2022-12-20T21:35:51.665Z,-2.90
2022-12-20T21:38:22.461Z,-2.90
2022-12-20T21:40:52.136Z,-2.90
2022-12-20T21:43:20.339Z,-3.00
2022-12-20T21:45:51.369Z,-2.90
2022-12-20T21:48:19.612Z,-2.90
2022-12-20T21:50:47.796Z,-2.90
2022-12-20T21:53:19.572Z,-2.80
2022-12-20T21:55:48.046Z,-2.80
2022-12-20T21:58:17.704Z,-2.80
2022-12-20T22:00:49.558Z,-2.80
2022-12-20T22:03:23.732Z,-2.70
2022-12-20T22:05:54.146Z,-2.80
2022-12-20T22:08:30.388Z,-2.80
2022-12-20T22:11:04.057Z,-2.80
2022-12-20T22:13:40.654Z,-2.70
2022-12-20T22:16:10.760Z,-2.70
2022-12-20T22:18:39.520Z,-2.70
2022-12-20T22:21:09.906Z,-2.70
2022-12-20T22:23:38.513Z,-2.70
2022-12-20T22:26:09.498Z,-2.60
2022-12-20T22:28:39.893Z,-2.60
2022-12-20T22:31:09.582Z,-2.70
2022-12-20T22:33:38.957Z,-2.70
2022-12-20T22:36:09.649Z,-2.70
2022-12-20T22:38:37.953Z,-2.80
2022-12-20T22:41:10.729Z,-2.80
2022-12-20T22:43:43.032Z,-2.80
2022-12-20T22:46:12.881Z,-2.80
2022-12-20T22:48:42.091Z,-2.80
2022-12-20T22:51:12.575Z,-2.80
2022-12-20T22:53:41.495Z,-2.90
2022-12-20T22:56:10.677Z,-2.90
2022-12-20T22:58:41.374Z,-2.90
2022-12-20T23:01:11.918Z,-2.90
2022-12-20T23:03:40.634Z,-3.00
2022-12-20T23:06:12.505Z,-3.00
2022-12-20T23:08:40.859Z,-3.10
2022-12-20T23:11:33.998Z,-3.10
2022-12-20T23:14:21.855Z,-3.10
2022-12-20T23:16:50.358Z,-3.20
2022-12-20T23:20:25.962Z,-3.10
2022-12-20T23:23:19.912Z,-3.10
2022-12-20T23:25:56.931Z,-2.90
2022-12-20T23:28:25.466Z,-3.00
2022-12-20T23:30:55.027Z,-3.10
2022-12-20T23:33:23.285Z,-3.10
2022-12-20T23:35:57.585Z,-3.20
2022-12-20T23:38:26.196Z,-3.20
2022-12-20T23:40:54.477Z,-3.20
2022-12-20T23:43:22.768Z,-3.20
2022-12-20T23:45:51.255Z,-3.10
2022-12-20T23:48:20.902Z,-3.10
2022-12-20T23:50:56.864Z,-3.10
2022-12-20T23:53:25.059Z,-3.20
2022-12-20T23:55:58.781Z,-3.10
2022-12-20T23:58:27.066Z,-3.10
